Time;durP1;ratioP1;P1;durP2;ratioP2;P2;SDS_P1;SDS_P2;PMS_P1;PMS_P2;Temp;Humidity;BMP_temperature;BMP_pressure;BME280_temperature;BME280_humidity;BME280_pressure;Samples;Min_cycle;Max_cycle;Signal;HPM_P1;HPM_P2
2021/12/05 00:17:55;;;;;;;;;16.50;15.75;;;;;7.80;77.11;100551.19;146611;573;45021;-65
2021/12/05 00:21:08;;;;;;;;;21.75;19.00;;;;;7.82;78.14;100549.59;146605;629;46012;-65
2021/12/05 00:24:08;;;;;;;;;19.75;19.25;;;;;7.84;78.12;100553.16;146608;571;46014;-65
2021/12/05 00:27:17;;;;;;;;;19.50;17.25;;;;;7.88;77.63;100554.22;146605;590;46016;-64
2021/12/05 00:31:00;;;;;;;;;16.00;15.00;;;;;7.89;77.77;100553.44;146611;642;45020;-65
2021/12/05 00:44:47;;;;;;;;;12.00;11.00;;;;;7.79;77.98;100559.75;146608;630;46020;-65
2021/12/05 01:07:10;;;;;;;;;20.50;16.75;;;;;7.72;78.16;100547.25;146604;615;46016;-64
2021/12/05 01:17:10;;;;;;;;;18.25;14.75;;;;;7.77;76.88;100552.69;146605;580;46021;-66
2021/12/05 01:20:05;;;;;;;;;15.00;14.50;;;;;7.79;77.44;100543.38;146606;570;46012;-65
2021/12/05 01:23:06;;;;;;;;;17.25;14.75;;;;;7.81;77.12;100549.50;146608;598;46020;-66
2021/12/05 01:26:14;;;;;;;;;17.75;14.50;;;;;7.79;77.36;100545.94;146605;623;46016;-65
2021/12/05 01:29:29;;;;;;;;;50.25;38.25;;;;;7.75;79.77;100547.44;146608;611;46020;-65
2021/12/05 01:32:36;;;;;;;;;30.50;24.75;;;;;7.73;80.01;100549.06;146605;622;46012;-65
2021/12/05 01:35:55;;;;;;;;;25.00;21.75;;;;;7.77;79.22;100556.16;146607;604;46010;-66
2021/12/05 01:55:36;;;;;;;;;12.75;10.00;;;;;7.56;77.81;100526.50;146607;599;46020;-64
2021/12/05 01:58:38;;;;;;;;;13.00;12.25;;;;;7.47;80.78;100534.56;146603;584;47913;-64
2021/12/05 02:08:22;;;;;;;;;11.50;8.00;;;;;7.50;79.06;100515.81;146607;581;47014;-65
2021/12/05 02:30:56;;;;;;;;;15.75;14.00;;;;;7.44;79.74;100489.66;146604;594;46016;-65
2021/12/05 02:37:00;;;;;;;;;10.75;10.75;;;;;7.44;78.55;100480.22;146605;646;47012;-66
2021/12/05 02:43:09;;;;;;;;;10.75;10.25;;;;;7.45;78.66;100475.97;146607;587;46013;-64
2021/12/05 02:46:03;;;;;;;;;13.50;9.00;;;;;7.44;78.33;100476.75;146607;632;46014;-64
2021/12/05 02:49:01;;;;;;;;;12.50;9.25;;;;;7.48;77.89;100492.50;146606;565;46016;-65
2021/12/05 02:51:58;;;;;;;;;13.25;10.50;;;;;7.52;77.80;100498.75;146608;616;46014;-64
2021/12/05 02:54:53;;;;;;;;;9.00;7.50;;;;;7.57;77.55;100493.06;146605;585;46014;-65
2021/12/05 02:57:52;;;;;;;;;28.00;23.50;;;;;7.57;76.68;100498.22;146608;630;46020;-64
2021/12/05 03:03:59;;;;;;;;;9.75;9.00;;;;;7.46;78.37;100490.63;146606;677;46020;-65
2021/12/05 03:06:53;;;;;;;;;7.00;6.00;;;;;7.37;77.92;100502.16;146608;593;46012;-64
2021/12/05 03:09:47;;;;;;;;;8.50;7.00;;;;;7.30;77.36;100506.88;146608;584;46020;-63
2021/12/05 03:12:39;;;;;;;;;20.50;18.50;;;;;7.27;77.61;100493.81;146606;570;46013;-63
2021/12/05 03:15:31;;;;;;;;;33.25;23.75;;;;;7.23;78.11;100482.41;146605;585;46020;-63
2021/12/05 03:18:23;;;;;;;;;32.25;31.00;;;;;7.22;78.16;100495.19;146608;674;46012;-64
2021/12/05 03:21:16;;;;;;;;;22.50;21.50;;;;;7.21;77.45;100502.03;146605;634;46026;-64
2021/12/05 03:24:09;;;;;;;;;12.50;11.00;;;;;7.24;77.90;100512.56;146605;605;46016;-64
2021/12/05 03:27:02;;;;;;;;;10.00;10.00;;;;;7.25;79.02;100497.97;146606;617;47010;-65
2021/12/05 03:29:54;;;;;;;;;17.00;15.00;;;;;7.25;78.67;100493.69;146606;588;46016;-65
2021/12/05 03:32:48;;;;;;;;;15.00;13.25;;;;;7.26;78.98;100489.41;146608;603;45027;-64
2021/12/05 03:35:41;;;;;;;;;20.00;17.25;;;;;7.29;80.17;100493.09;146609;578;46012;-65
2021/12/05 03:38:32;;;;;;;;;17.50;11.75;;;;;7.30;79.10;100504.31;146609;576;46010;-67
2021/12/05 03:41:25;;;;;;;;;69.75;52.00;;;;;7.33;78.22;100515.69;146605;593;46016;-67
2021/12/05 03:44:21;;;;;;;;;142.33;113.67;;;;;7.37;78.18;100519.34;146611;756;46020;-67
2021/12/05 03:47:13;;;;;;;;;167.75;126.25;;;;;7.38;77.39;100511.72;146613;647;46016;-67
2021/12/05 03:50:07;;;;;;;;;80.25;62.50;;;;;7.36;76.84;100515.00;146616;604;45020;-66
2021/12/05 03:53:00;;;;;;;;;61.00;48.00;;;;;7.28;76.64;100513.62;146605;615;46012;-67
2021/12/05 03:55:55;;;;;;;;;47.50;37.75;;;;;7.23;76.82;100515.94;146611;571;45020;-67
2021/12/05 03:58:48;;;;;;;;;8.75;7.00;;;;;7.16;78.71;100506.03;146604;594;46014;-68
2021/12/05 04:01:41;;;;;;;;;10.00;8.75;;;;;7.07;77.60;100506.38;146609;609;46010;-67
2021/12/05 04:04:34;;;;;;;;;9.00;9.00;;;;;7.05;77.40;100510.53;146603;600;46016;-67
2021/12/05 04:07:27;;;;;;;;;14.50;14.00;;;;;7.08;77.38;100520.16;146607;582;46020;-67
2021/12/05 04:10:19;;;;;;;;;15.25;12.75;;;;;7.11;77.37;100517.75;146604;587;46016;-67
2021/12/05 04:13:14;;;;;;;;;16.75;15.75;;;;;7.17;76.93;100539.66;146606;569;46010;-67
2021/12/05 04:16:10;;;;;;;;;19.25;16.75;;;;;7.22;77.22;100539.03;146606;688;46014;-67
2021/12/05 04:19:02;;;;;;;;;20.00;17.75;;;;;7.22;77.42;100549.34;146607;677;46020;-67
2021/12/05 04:21:55;;;;;;;;;14.75;12.50;;;;;7.18;77.76;100548.28;146605;612;46012;-66
2021/12/05 04:24:47;;;;;;;;;13.50;13.00;;;;;7.11;77.44;100546.13;146607;664;46020;-67
2021/12/05 04:27:41;;;;;;;;;25.25;23.00;;;;;7.03;78.28;100550.78;146607;601;46012;-64
2021/12/05 04:30:33;;;;;;;;;22.75;20.00;;;;;6.97;78.04;100559.81;146607;668;46010;-66
2021/12/05 04:33:26;;;;;;;;;26.25;18.50;;;;;6.92;77.96;100568.16;146607;624;46012;-66
2021/12/05 04:36:18;;;;;;;;;12.50;10.50;;;;;6.87;78.49;100564.41;146606;584;46021;-66
2021/12/05 04:39:11;;;;;;;;;16.00;14.00;;;;;6.84;78.22;100574.50;146605;590;46012;-66
2021/12/05 04:42:03;;;;;;;;;11.25;9.25;;;;;6.83;78.28;100571.84;146609;564;46021;-66
2021/12/05 04:44:56;;;;;;;;;10.50;8.75;;;;;6.85;78.73;100573.75;146606;638;46012;-66
2021/12/05 04:47:49;;;;;;;;;7.25;7.25;;;;;6.84;79.83;100565.91;146608;672;46020;-65
2021/12/05 04:50:44;;;;;;;;;7.75;6.00;;;;;6.83;79.91;100557.28;146607;573;46013;-66
2021/12/05 04:53:37;;;;;;;;;7.00;6.75;;;;;6.86;80.14;100569.47;146608;564;46020;-65
2021/12/05 04:56:33;;;;;;;;;15.75;15.75;;;;;6.85;80.51;100560.84;146606;614;46015;-66
2021/12/05 04:59:27;;;;;;;;;11.25;10.75;;;;;6.87;79.71;100555.78;146609;599;46010;-65
2021/12/05 05:02:20;;;;;;;;;11.75;10.00;;;;;6.88;78.94;100555.87;146606;645;46016;-66
2021/12/05 05:05:15;;;;;;;;;19.25;18.50;;;;;6.91;80.90;100555.16;146607;584;46021;-65
2021/12/05 05:08:07;;;;;;;;;19.75;13.00;;;;;6.98;79.68;100559.03;146604;608;47014;-66
2021/12/05 05:11:00;;;;;;;;;59.75;45.25;;;;;5.92;78.39;100372.00;146606;588;46021;-67
2021/12/05 05:13:55;;;;;;;;;60.50;47.75;;;;;7.02;77.84;100563.59;146605;588;46016;-65
2021/12/05 05:16:52;;;;;;;;;163.50;131.50;;;;;7.03;77.78;100565.38;146611;574;46020;-65
2021/12/05 05:19:49;;;;;;;;;36.25;33.00;;;;;5.88;78.05;100368.34;146610;641;46016;-67
2021/12/05 05:29:31;;;;;;;;;79.50;58.75;;;;;6.94;77.30;100568.25;146607;618;46010;-66
2021/12/05 05:48:34;;;;;;;;;60.25;47.25;;;;;6.89;77.80;100624.69;146608;638;46020;-67
2021/12/05 05:51:26;;;;;;;;;46.50;39.25;;;;;6.89;78.40;100626.38;146604;586;46016;-67
2021/12/05 05:54:19;;;;;;;;;58.00;48.00;;;;;6.93;78.61;100618.91;146608;595;46010;-67
2021/12/05 06:00:38;;;;;;;;;13.75;10.50;;;;;7.07;78.63;100626.63;146606;590;46020;-67
2021/12/05 06:03:30;;;;;;;;;12.00;11.00;;;;;7.12;78.73;100633.87;146607;636;46017;-66
2021/12/05 06:06:22;;;;;;;;;17.50;16.50;;;;;7.22;78.75;100631.88;146607;579;46020;-66
2021/12/05 06:09:15;;;;;;;;;15.50;13.00;;;;;7.31;78.62;100635.91;146608;663;46012;-67
2021/12/05 06:12:08;;;;;;;;;12.00;10.25;;;;;7.44;78.80;100634.09;146608;611;46020;-65
2021/12/05 06:15:00;;;;;;;;;14.25;12.25;;;;;7.53;78.74;100645.88;146606;607;46012;-66
2021/12/05 06:17:55;;;;;;;;;21.25;16.00;;;;;7.66;79.39;100651.81;146606;775;46020;-66
2021/12/05 06:20:47;;;;;;;;;19.25;15.50;;;;;7.82;78.66;100651.97;146604;633;46016;-65
2021/12/05 06:23:41;;;;;;;;;25.50;18.75;;;;;8.07;79.13;100656.91;146608;573;46010;-65
2021/12/05 06:26:35;;;;;;;;;38.00;32.25;;;;;8.64;78.85;100668.03;146606;565;46013;-67
2021/12/05 06:29:32;;;;;;;;;38.50;32.25;;;;;9.49;78.05;100674.56;146609;631;46014;-66
2021/12/05 06:48:46;;;;;;;;;30.75;27.75;;;;;13.79;67.15;100658.88;146608;571;46021;-64
2021/12/05 06:51:38;;;;;;;;;52.00;41.00;;;;;14.49;64.18;100657.91;146605;583;46915;-65
2021/12/05 06:54:30;;;;;;;;;41.25;32.00;;;;;15.07;63.11;100656.34;146609;625;46010;-67
2021/12/05 06:57:23;;;;;;;;;40.00;32.00;;;;;15.65;62.29;100652.94;146605;580;46012;-67
2021/12/05 07:00:26;;;;;;;;;41.75;32.75;;;;;16.42;61.09;100666.47;146610;576;45040;-66
2021/12/05 07:03:18;;;;;;;;;34.50;28.25;;;;;17.12;58.42;100669.09;146607;595;46013;-66
2021/12/05 07:06:17;;;;;;;;;46.00;38.00;;;;;17.71;56.97;100661.69;146606;703;46020;-67
2021/12/05 07:09:10;;;;;;;;;42.50;34.25;;;;;18.21;55.51;100659.25;146606;570;46915;-67
2021/12/05 07:15:33;;;;;;;;;28.25;26.25;;;;;19.04;53.23;100663.34;146601;617;46016;-67
2021/12/05 07:24:51;;;;;;;;;26.00;23.00;;;;;19.34;51.34;100653.28;146608;600;46020;-67
2021/12/05 07:40:28;;;;;;;;;17.25;15.75;;;;;18.13;53.68;100653.84;146604;590;46016;-67
2021/12/05 07:43:20;;;;;;;;;13.25;13.25;;;;;17.82;54.76;100638.34;146607;624;46020;-69
2021/12/05 07:46:13;;;;;;;;;21.00;17.00;;;;;17.58;55.62;100631.72;146605;606;46915;-67
2021/12/05 07:49:09;;;;;;;;;16.25;15.50;;;;;16.48;55.88;100487.75;146606;569;46021;-68
2021/12/05 07:52:01;;;;;;;;;18.75;16.75;;;;;16.31;56.84;100488.22;146605;634;46016;-66
2021/12/05 07:55:02;;;;;;;;;19.00;16.25;;;;;17.08;56.89;100640.22;146608;672;46021;-67
2021/12/05 07:58:14;;;;;;;;;18.00;14.75;;;;;16.92;58.14;100631.97;146608;587;46012;-67
2021/12/05 08:14:21;;;;;;;;;15.00;14.75;;;;;16.71;57.79;100627.06;146608;627;47010;-67
2021/12/05 08:17:17;;;;;;;;;21.25;20.50;;;;;16.44;59.75;100641.19;146604;606;46016;-66
2021/12/05 08:20:14;;;;;;;;;22.50;21.00;;;;;16.46;59.68;100649.09;146607;622;46010;-66
2021/12/05 08:23:07;;;;;;;;;16.25;13.75;;;;;16.49;59.33;100651.81;146605;569;46012;-66
2021/12/05 08:26:09;;;;;;;;;13.50;12.50;;;;;16.53;59.65;100657.13;146607;659;46011;-66
2021/12/05 08:29:16;;;;;;;;;18.50;16.50;;;;;16.61;60.27;100653.00;146603;553;47012;-65
2021/12/05 08:32:28;;;;;;;;;20.25;20.00;;;;;16.78;60.08;100655.19;146607;578;46021;-65
2021/12/05 08:35:44;;;;;;;;;22.75;20.75;;;;;16.90;59.47;100655.47;146607;611;46012;-67
2021/12/05 09:24:02;;;;;;;;;40.75;33.00;;;;;17.17;59.78;100655.25;146610;656;45022;-64
2021/12/05 10:02:39;;;;;;;;;22.50;21.00;;;;;18.03;59.41;100628.28;146608;573;46011;-63
2021/12/05 10:09:08;;;;;;;;;26.75;24.75;;;;;18.50;58.39;100615.12;146608;600;46011;-64
2021/12/05 10:15:48;;;;;;;;;21.00;17.50;;;;;18.86;56.27;100590.38;146607;566;46021;-64
2021/12/05 10:36:18;;;;;;;;;32.75;28.00;;;;;19.04;56.45;100553.84;146611;650;46020;-64
2021/12/05 10:39:12;;;;;;;;;36.00;31.50;;;;;19.17;55.99;100554.91;146606;647;46012;-65
2021/12/05 10:42:13;;;;;;;;;18.00;17.75;;;;;19.28;55.49;100550.69;146609;612;45020;-64
2021/12/05 10:45:07;;;;;;;;;24.25;19.00;;;;;19.27;55.20;100542.75;146605;570;46916;-64
2021/12/05 10:48:01;;;;;;;;;22.00;20.50;;;;;19.17;55.00;100533.00;146603;563;46021;-65
2021/12/05 10:50:56;;;;;;;;;26.25;24.25;;;;;19.09;55.77;100535.50;146606;714;46916;-64
2021/12/05 10:53:59;;;;;;;;;17.25;17.25;;;;;19.14;56.48;100541.72;146605;616;46021;-64
2021/12/05 10:56:55;;;;;;;;;29.00;28.00;;;;;19.16;55.29;100532.13;146607;701;46014;-64
2021/12/05 10:59:47;;;;;;;;;39.75;31.75;;;;;19.12;56.44;100533.81;146606;579;46020;-64
2021/12/05 11:02:40;;;;;;;;;27.75;26.75;;;;;18.16;55.80;100370.50;146605;613;46031;-65
2021/12/05 11:05:41;;;;;;;;;23.00;18.75;;;;;19.01;55.84;100529.28;146604;593;46020;-63
2021/12/05 11:08:42;;;;;;;;;35.25;31.00;;;;;18.86;55.78;100522.94;146605;584;46916;-64
2021/12/05 11:11:35;;;;;;;;;39.00;32.50;;;;;18.73;55.83;100521.00;146605;658;47919;-64
2021/12/05 11:14:34;;;;;;;;;45.25;37.00;;;;;18.71;57.50;100514.81;146604;572;46016;-63
2021/12/05 11:17:29;;;;;;;;;44.50;35.25;;;;;18.73;55.90;100512.25;146608;569;46020;-65
2021/12/05 11:20:33;;;;;;;;;42.50;29.50;;;;;18.75;55.59;100511.37;146606;611;47012;-64
2021/12/05 11:23:25;;;;;;;;;39.00;34.50;;;;;18.76;55.50;100513.19;146609;588;45021;-65
2021/12/05 11:26:22;;;;;;;;;36.50;30.50;;;;;18.74;56.26;100517.50;146607;586;47012;-65
2021/12/05 11:29:15;;;;;;;;;34.50;31.25;;;;;18.71;56.16;100517.44;146608;581;46021;-64
2021/12/05 11:32:12;;;;;;;;;41.00;32.00;;;;;18.80;55.87;100511.47;146605;567;46012;-64
2021/12/05 11:35:17;;;;;;;;;33.00;30.25;;;;;18.88;57.12;100502.84;146607;580;46010;-64
2021/12/05 11:38:21;;;;;;;;;39.00;32.75;;;;;19.05;57.15;100513.56;146604;593;46017;-63
2021/12/05 11:41:20;;;;;;;;;41.75;33.75;;;;;19.35;55.09;100494.69;146608;662;46020;-66
2021/12/05 11:44:12;;;;;;;;;46.50;36.75;;;;;19.60;54.87;100492.34;146602;616;46016;-65
2021/12/05 11:47:19;;;;;;;;;43.75;35.75;;;;;19.72;53.97;100481.97;146607;618;46020;-66
2021/12/05 11:50:13;;;;;;;;;39.00;32.50;;;;;19.67;52.76;100477.53;146602;583;46016;-64
2021/12/05 11:53:07;;;;;;;;;28.75;27.25;;;;;19.60;54.24;100479.19;146608;586;47010;-63
2021/12/05 11:55:59;;;;;;;;;35.00;30.50;;;;;19.62;52.81;100480.97;146606;638;46012;-65
2021/12/05 11:59:33;;;;;;;;;35.00;29.50;;;;;19.62;53.62;100474.78;146609;582;46020;-63
2021/12/05 12:02:33;;;;;;;;;37.75;31.75;;;;;19.62;54.79;100470.44;146603;637;47913;-64
2021/12/05 12:05:38;;;;;;;;;35.50;31.00;;;;;19.73;55.90;100456.53;146609;600;46010;-64
2021/12/05 12:08:30;;;;;;;;;34.00;29.00;;;;;19.91;53.99;100451.47;146604;573;46017;-63
2021/12/05 12:11:22;;;;;;;;;35.25;31.75;;;;;20.11;53.30;100458.63;146606;572;47010;-64
2021/12/05 12:14:15;;;;;;;;;30.00;25.00;;;;;20.25;51.53;100449.97;146603;564;46030;-63
2021/12/05 12:17:13;;;;;;;;;31.75;28.00;;;;;20.30;52.23;100445.59;146605;579;46010;-64
2021/12/05 12:20:11;;;;;;;;;31.25;27.00;;;;;20.35;51.74;100447.41;146606;625;46016;-64
2021/12/05 12:23:04;;;;;;;;;37.50;29.50;;;;;20.47;52.38;100444.88;146607;569;46020;-63
2021/12/05 12:25:59;;;;;;;;;32.25;30.25;;;;;20.75;52.83;100438.91;146605;573;47014;-64
2021/12/05 12:28:53;;;;;;;;;32.75;29.25;;;;;21.12;51.68;100439.06;146609;578;46011;-65
2021/12/05 12:31:48;;;;;;;;;33.75;31.00;;;;;21.47;51.03;100432.19;146604;604;46016;-64
2021/12/05 12:34:40;;;;;;;;;38.75;33.75;;;;;21.76;50.60;100432.22;146609;597;46020;-64
2021/12/05 12:37:33;;;;;;;;;41.25;33.50;;;;;22.04;49.14;100427.81;146605;613;46017;-65
2021/12/05 12:40:47;;;;;;;;;39.75;32.50;;;;;22.19;51.35;100424.31;146605;573;47010;-64
2021/12/05 12:43:52;;;;;;;;;40.25;33.75;;;;;22.18;49.31;100428.72;146607;722;46017;-64
2021/12/05 12:46:52;;;;;;;;;30.50;29.50;;;;;21.98;49.00;100433.97;146607;577;46020;-64
2021/12/05 12:49:44;;;;;;;;;15.50;14.75;;;;;21.83;48.22;100440.13;146603;641;46016;-65
2021/12/05 12:52:36;;;;;;;;;16.50;15.50;;;;;21.68;48.14;100434.81;146607;564;46011;-64
2021/12/05 12:55:36;;;;;;;;;16.67;14.00;;;;;21.57;50.38;100428.66;146608;563;46034;-64
2021/12/05 12:58:54;;;;;;;;;13.25;11.00;;;;;21.63;52.23;100431.31;146609;665;46011;-64
2021/12/05 13:02:25;;;;;;;;;14.33;12.00;;;;;21.72;49.35;100425.19;146604;608;46016;-65
2021/12/05 13:05:22;;;;;;;;;11.00;11.00;;;;;21.72;49.74;100415.50;146608;573;46010;-64
2021/12/05 13:11:50;;;;;;;;;2.00;0.00;;;;;21.84;49.99;100414.62;146608;607;46014;-66
2021/12/05 13:15:09;;;;;;;;;17.75;15.25;;;;;20.84;52.43;100244.81;146606;656;46017;-65
2021/12/05 13:18:28;;;;;;;;;15.75;14.00;;;;;21.82;51.29;100408.47;146605;626;47010;-64
2021/12/05 13:21:36;;;;;;;;;16.25;15.75;;;;;21.82;50.88;100405.81;146607;616;46013;-64
2021/12/05 13:24:46;;;;;;;;;16.00;15.00;;;;;21.75;51.16;100412.88;146607;655;46020;-64
2021/12/05 13:27:38;;;;;;;;;13.00;12.00;;;;;21.67;51.22;100407.56;146607;592;46016;-64
2021/12/05 13:30:40;;;;;;;;;12.33;10.67;;;;;21.67;51.95;100414.59;146608;635;46010;-66
2021/12/05 13:33:35;;;;;;;;;15.75;13.00;;;;;21.58;51.00;100415.47;146606;679;47014;-64
2021/12/05 13:36:37;;;;;;;;;13.00;9.00;;;;;21.60;50.54;100419.00;146608;619;46021;-64
2021/12/05 13:40:20;;;;;;;;;11.67;9.67;;;;;20.57;46.80;100253.53;146605;615;46016;-65
2021/12/05 13:43:13;;;;;;;;;10.00;8.33;;;;;21.18;48.62;100425.91;146608;597;46021;-64
2021/12/05 13:46:06;;;;;;;;;6.00;6.00;;;;;20.95;49.24;100410.00;146606;607;46014;-65
2021/12/05 13:48:59;;;;;;;;;9.00;7.33;;;;;20.82;50.02;100410.84;146608;595;46020;-65
2021/12/05 13:51:51;;;;;;;;;11.67;9.67;;;;;20.69;51.08;100411.66;146606;629;46012;-64
2021/12/05 13:54:43;;;;;;;;;8.67;8.00;;;;;20.63;51.76;100409.00;146606;580;46020;-64
2021/12/05 13:57:35;;;;;;;;;13.00;11.67;;;;;20.64;52.18;100414.25;146605;570;47916;-64
2021/12/05 14:01:43;;;;;;;;;14.00;12.33;;;;;19.63;52.30;100242.50;146609;603;46010;-64
2021/12/05 14:04:45;;;;;;;;;11.33;10.33;;;;;20.34;50.89;100401.75;146607;582;46015;-65
2021/12/05 14:08:03;;;;;;;;;11.00;9.33;;;;;20.06;52.00;100400.66;146606;666;47010;-72
2021/12/05 14:10:59;;;;;;;;;8.00;7.00;;;;;19.93;53.00;100393.56;146609;642;46012;-72
2021/12/05 14:13:51;;;;;;;;;11.00;10.33;;;;;19.92;51.37;100394.44;146609;678;46011;-72
2021/12/05 14:16:46;;;;;;;;;7.67;6.33;;;;;19.78;50.55;100397.84;146606;654;47012;-72
2021/12/05 14:19:40;;;;;;;;;6.00;4.67;;;;;19.54;51.46;100392.34;146609;630;46010;-71
2021/12/05 14:22:35;;;;;;;;;6.00;5.67;;;;;18.54;52.51;100266.88;146606;565;46012;-72
2021/12/05 14:25:32;;;;;;;;;9.33;7.67;;;;;19.03;53.53;100398.78;146608;569;46030;-71
2021/12/05 14:28:25;;;;;;;;;10.00;7.00;;;;;18.71;53.94;100401.88;146607;563;46012;-72
2021/12/05 14:31:27;;;;;;;;;7.00;6.67;;;;;18.50;55.92;100397.22;146611;564;45020;-71
2021/12/05 14:34:19;;;;;;;;;7.00;5.00;;;;;18.31;55.60;100400.44;146606;668;47014;-71
2021/12/05 14:37:19;;;;;;;;;19.33;10.67;;;;;18.11;55.33;100406.28;146609;578;46020;-72
2021/12/05 14:40:30;;;;;;;;;11.00;10.00;;;;;17.86;54.69;100412.00;146606;709;46024;-72
2021/12/05 14:43:24;;;;;;;;;11.50;9.25;;;;;17.53;54.77;100415.75;146609;613;45039;-72
2021/12/05 14:46:16;;;;;;;;;15.50;14.75;;;;;17.15;56.14;100413.28;146606;620;46915;-72
2021/12/05 14:49:08;;;;;;;;;16.00;14.75;;;;;16.84;57.90;100417.03;146607;631;46020;-72
2021/12/05 14:52:02;;;;;;;;;6.00;6.00;;;;;16.58;58.76;100432.16;146606;573;46016;-72
2021/12/05 14:54:55;;;;;;;;;5.67;5.67;;;;;16.31;59.96;100427.19;146607;569;46010;-71
2021/12/05 14:57:53;;;;;;;;;7.00;6.00;;;;;16.02;61.09;100440.44;146605;579;46017;-72
2021/12/05 15:00:58;;;;;;;;;13.25;11.75;;;;;15.73;61.63;100433.59;146608;590;46020;-72
2021/12/05 15:03:55;;;;;;;;;11.00;10.00;;;;;15.50;62.71;100431.22;146603;661;46017;-71
2021/12/05 15:06:49;;;;;;;;;21.25;20.25;;;;;15.32;63.15;100444.69;146608;611;46020;-72
2021/12/05 15:09:47;;;;;;;;;14.00;12.50;;;;;15.10;63.69;100437.97;146605;582;46915;-72
2021/12/05 15:12:40;;;;;;;;;26.25;24.25;;;;;14.93;63.86;100437.50;146607;570;46021;-72
2021/12/05 15:15:32;;;;;;;;;49.25;38.75;;;;;14.80;64.22;100435.38;146606;591;47014;-72
2021/12/05 15:18:32;;;;;;;;;50.25;39.50;;;;;14.68;64.42;100435.00;146609;566;46021;-72
2021/12/05 15:21:24;;;;;;;;;53.25;42.00;;;;;14.55;64.79;100444.19;146605;620;46012;-71
2021/12/05 15:24:19;;;;;;;;;41.50;36.00;;;;;14.35;64.98;100445.25;146607;593;46020;-71
2021/12/05 15:27:26;;;;;;;;;41.75;33.50;;;;;14.12;65.37;100449.75;146607;642;46013;-72
2021/12/05 15:30:25;;;;;;;;;44.00;34.00;;;;;13.91;65.91;100455.13;146610;579;46010;-71
2021/12/05 15:33:22;;;;;;;;;39.25;31.50;;;;;13.75;65.97;100451.13;146604;573;47015;-72
2021/12/05 15:36:14;;;;;;;;;51.50;41.75;;;;;13.60;66.05;100457.56;146608;585;46020;-71
2021/12/05 15:39:21;;;;;;;;;47.50;40.00;;;;;13.51;66.18;100454.66;146605;725;46915;-66
2021/12/05 15:42:37;;;;;;;;;45.00;38.00;;;;;13.50;66.14;100459.81;146607;636;46010;-70
2021/12/05 15:45:30;;;;;;;;;53.50;41.00;;;;;13.47;66.87;100462.31;146602;585;46016;-68
2021/12/05 15:48:37;;;;;;;;;57.00;45.00;;;;;13.44;66.52;100465.69;146607;579;46021;-69
2021/12/05 15:51:30;;;;;;;;;59.00;46.50;;;;;13.42;66.88;100469.06;146605;602;46014;-67
2021/12/05 15:54:21;;;;;;;;;59.50;46.50;;;;;13.36;67.10;100475.84;146607;563;46010;-65
2021/12/05 15:57:26;;;;;;;;;63.75;49.50;;;;;13.32;67.19;100473.94;146605;632;47012;-67
2021/12/05 16:00:35;;;;;;;;;87.00;78.00;;;;;13.28;66.94;100486.81;146607;662;46020;-67
2021/12/05 16:03:30;;;;;;;;;61.50;48.25;;;;;13.16;67.04;100487.22;146612;569;47012;-67
2021/12/05 16:06:25;;;;;;;;;59.00;45.50;;;;;13.02;67.36;100489.31;146608;577;46010;-68
2021/12/05 16:09:24;;;;;;;;;64.00;49.75;;;;;12.85;67.66;100488.66;146604;563;46916;-67
2021/12/05 16:12:20;;;;;;;;;70.50;57.50;;;;;12.79;68.05;100493.63;146609;632;46021;-67
2021/12/05 16:15:14;;;;;;;;;59.25;46.75;;;;;12.75;67.97;100496.06;146606;563;46012;-67
2021/12/05 16:21:51;;;;;;;;;68.00;53.00;;;;;12.69;69.04;100507.13;146604;711;46016;-67
2021/12/05 16:24:43;;;;;;;;;63.00;50.50;;;;;11.64;68.77;100338.28;146607;599;47010;-69
2021/12/05 16:27:35;;;;;;;;;62.00;48.50;;;;;12.63;68.82;100512.06;146605;692;46014;-68
2021/12/05 16:30:32;;;;;;;;;67.75;51.50;;;;;10.35;68.86;100116.75;146609;577;46010;-67
2021/12/05 16:33:24;;;;;;;;;60.25;45.25;;;;;12.62;68.67;100520.72;146606;576;46016;-68
2021/12/05 16:36:18;;;;;;;;;57.00;47.00;;;;;12.60;68.68;100527.56;146609;595;45022;-68
2021/12/05 16:39:16;;;;;;;;;60.75;46.50;;;;;11.65;68.75;100368.63;146605;600;46012;-69
2021/12/05 16:42:18;;;;;;;;;57.75;46.25;;;;;12.56;68.53;100513.56;146608;622;46021;-69
2021/12/05 16:45:11;;;;;;;;;54.00;44.00;;;;;12.46;69.25;100514.91;146606;569;46012;-68
2021/12/05 16:48:03;;;;;;;;;58.75;46.25;;;;;12.29;68.86;100508.13;146608;566;46021;-68
2021/12/05 16:50:56;;;;;;;;;65.25;50.25;;;;;12.12;68.87;100510.03;146607;577;46012;-69
2021/12/05 16:53:50;;;;;;;;;69.75;51.50;;;;;11.50;68.96;100412.16;146605;792;46020;-68
2021/12/05 16:56:49;;;;;;;;;63.75;51.50;;;;;12.02;68.74;100515.66;146605;618;46012;-67
2021/12/05 16:59:48;;;;;;;;;67.75;55.00;;;;;12.02;69.18;100526.03;146608;579;46010;-67
2021/12/05 17:03:00;;;;;;;;;94.00;83.00;;;;;11.95;68.44;100524.91;146605;592;46017;-67
2021/12/05 17:05:54;;;;;;;;;77.33;64.00;;;;;10.82;69.00;100344.34;146612;682;46020;-68
2021/12/05 17:08:48;;;;;;;;;73.75;62.00;;;;;11.85;69.31;100529.66;146605;596;46012;-67
2021/12/05 17:11:40;;;;;;;;;77.00;64.75;;;;;11.76;70.24;100533.59;146607;569;46010;-67
2021/12/05 17:14:37;;;;;;;;;81.33;73.00;;;;;11.53;71.12;100519.63;146606;639;46016;-68
2021/12/05 17:17:36;;;;;;;;;76.25;64.75;;;;;11.37;70.89;100524.97;146612;564;46020;-68
2021/12/05 17:20:31;;;;;;;;;95.67;81.00;;;;;11.30;70.83;100528.06;146608;615;46014;-67
2021/12/05 17:23:27;;;;;;;;;93.33;84.00;;;;;11.31;70.77;100522.09;146615;563;46010;-67
2021/12/05 17:26:50;;;;;;;;;76.33;66.67;;;;;10.16;69.70;100315.41;146612;846;46012;-68
2021/12/05 17:29:46;;;;;;;;;81.67;72.33;;;;;11.45;70.03;100527.88;146616;564;46010;-68
2021/12/05 17:32:39;;;;;;;;;80.67;68.00;;;;;11.49;70.18;100533.25;146612;625;46916;-67
2021/12/05 17:35:33;;;;;;;;;80.67;71.67;;;;;11.48;70.02;100528.03;146614;669;46020;-68
2021/12/05 17:38:39;;;;;;;;;81.33;70.33;;;;;11.46;69.08;100533.13;146615;585;46012;-69
2021/12/05 17:41:34;;;;;;;;;82.00;74.00;;;;;11.39;70.33;100523.28;146614;574;46020;-68
2021/12/05 17:44:26;;;;;;;;;97.00;86.00;;;;;10.22;69.55;100350.19;146612;575;46016;-68
2021/12/05 17:47:23;;;;;;;;;99.00;93.33;;;;;11.11;69.64;100510.78;146616;610;46021;-68
2021/12/05 17:50:23;;;;;;;;;123.00;114.50;;;;;10.99;70.40;100524.06;146612;682;46915;-69
2021/12/05 17:53:16;;;;;;;;;110.25;98.50;;;;;10.90;70.88;100515.88;146614;692;46020;-68
2021/12/05 17:56:17;;;;;;;;;110.25;102.25;;;;;10.90;71.85;100502.00;146614;608;46916;-67
2021/12/05 17:59:46;;;;;;;;;99.75;91.75;;;;;9.38;70.58;100272.00;146616;604;46010;-67
2021/12/05 18:02:44;;;;;;;;;121.00;108.25;;;;;10.85;70.65;100505.28;146612;617;46017;-68
2021/12/05 18:05:41;;;;;;;;;82.33;74.67;;;;;10.83;70.98;100514.69;146613;689;46010;-68
2021/12/05 18:08:34;;;;;;;;;115.00;105.75;;;;;10.80;71.96;100505.88;146611;602;46016;-67
2021/12/05 18:11:26;;;;;;;;;101.33;92.33;;;;;10.72;72.78;100508.13;146614;578;46020;-68
2021/12/05 18:14:18;;;;;;;;;122.50;107.00;;;;;10.68;72.69;100503.59;146616;645;46016;-67
2021/12/05 18:17:11;;;;;;;;;94.33;83.33;;;;;10.67;75.01;100475.03;146615;586;46014;-66
2021/12/05 18:20:04;;;;;;;;;106.67;91.00;;;;;10.57;77.60;100473.72;146614;692;46012;-66
2021/12/05 18:23:02;;;;;;;;;103.00;93.00;;;;;10.54;77.70;100484.81;146614;564;46011;-67
2021/12/05 18:25:54;;;;;;;;;93.00;87.33;;;;;10.54;73.99;100479.62;146613;578;46012;-67
2021/12/05 18:28:49;;;;;;;;;102.00;91.67;;;;;10.61;73.95;100473.03;146617;665;46020;-68